createdAt,value
2019-01-25T00:00:12.031Z,28.97
2019-01-25T00:02:22.459Z,28.67
2019-01-25T00:04:30.283Z,34.87
2019-01-25T00:06:38.860Z,34.97
2019-01-25T00:08:49.441Z,29.63
2019-01-25T00:10:58.846Z,22.77
2019-01-25T00:13:07.676Z,35.60
2019-01-25T00:15:15.374Z,36.87
2019-01-25T00:17:22.779Z,31.23
2019-01-25T00:19:31.798Z,18.47
2019-01-25T00:21:40.332Z,32.50
2019-01-25T00:23:48.708Z,29.07
2019-01-25T00:25:57.581Z,32.87
2019-01-25T00:28:05.663Z,28.43
2019-01-25T00:30:14.588Z,24.97
2019-01-25T00:32:21.974Z,32.10
2019-01-25T00:34:35.826Z,33.40
2019-01-25T00:36:43.833Z,35.53
2019-01-25T00:38:56.822Z,24.30
2019-01-25T00:41:03.626Z,39.17
2019-01-25T00:43:08.086Z,37.03
2019-01-25T00:45:19.891Z,16.70
2019-01-25T00:47:30.168Z,19.53
2019-01-25T00:49:39.164Z,33.97
2019-01-25T00:51:47.948Z,20.33
2019-01-25T00:53:56.893Z,24.80
2019-01-25T00:56:06.115Z,31.50
2019-01-25T00:58:14.966Z,28.60
2019-01-25T01:00:25.834Z,28.00
2019-01-25T01:02:35.974Z,31.60
2019-01-25T01:04:45.707Z,24.50
2019-01-25T01:06:52.923Z,27.47
2019-01-25T01:09:00.283Z,32.33
2019-01-25T01:11:07.891Z,30.17
2019-01-25T01:13:18.476Z,25.40
2019-01-25T01:15:27.030Z,31.57
2019-01-25T01:17:37.091Z,27.80
2019-01-25T01:19:45.566Z,28.97
2019-01-25T01:21:54.093Z,30.83
2019-01-25T01:24:02.464Z,35.17
2019-01-25T01:26:09.848Z,38.60
2019-01-25T01:28:19.562Z,39.93
2019-01-25T01:30:29.387Z,41.30
2019-01-25T01:32:37.276Z,40.23
2019-01-25T01:34:50.667Z,36.30
2019-01-25T01:36:59.710Z,35.93
2019-01-25T01:39:07.546Z,37.27
2019-01-25T01:41:12.743Z,36.07
2019-01-25T01:43:21.227Z,39.13
2019-01-25T01:45:31.437Z,44.07
2019-01-25T01:47:40.218Z,41.37
2019-01-25T01:49:49.013Z,45.77
2019-01-25T01:51:59.911Z,39.20
2019-01-25T01:54:10.786Z,46.10
2019-01-25T01:56:17.355Z,28.30
2019-01-25T01:58:26.734Z,33.00
2019-01-25T02:00:37.498Z,39.33
2019-01-25T02:02:43.666Z,30.67
2019-01-25T02:04:50.323Z,37.17
2019-01-25T02:06:55.818Z,37.33
2019-01-25T02:09:05.869Z,34.53
2019-01-25T02:11:15.159Z,41.87
2019-01-25T02:13:26.748Z,32.90
2019-01-25T02:15:35.678Z,41.77
2019-01-25T02:17:44.096Z,38.53
2019-01-25T02:19:52.494Z,37.90
2019-01-25T02:22:07.085Z,42.37
2019-01-25T02:24:15.051Z,41.07
2019-01-25T02:26:24.207Z,44.10
2019-01-25T02:28:34.284Z,41.57
2019-01-25T02:30:41.595Z,40.03
2019-01-25T02:32:51.211Z,44.20
2019-01-25T02:34:59.725Z,29.33
2019-01-25T02:37:08.973Z,41.10
2019-01-25T02:39:19.455Z,50.73
2019-01-25T02:41:28.619Z,49.30
2019-01-25T02:43:38.378Z,53.40
2019-01-25T02:45:48.266Z,54.40
2019-01-25T02:47:56.618Z,44.40
2019-01-25T02:50:04.202Z,46.47
2019-01-25T02:52:12.079Z,33.83
2019-01-25T02:54:22.027Z,56.20
2019-01-25T02:56:32.682Z,53.33
2019-01-25T02:58:43.656Z,49.30
2019-01-25T03:00:54.388Z,56.20
2019-01-25T03:03:03.731Z,38.70
2019-01-25T03:05:14.389Z,49.60
2019-01-25T03:07:24.484Z,48.07
2019-01-25T03:09:33.771Z,49.53
2019-01-25T03:11:46.590Z,43.20
2019-01-25T03:13:56.774Z,49.10
2019-01-25T03:16:05.684Z,51.83
2019-01-25T03:18:12.823Z,55.23
2019-01-25T03:20:20.586Z,41.70
2019-01-25T03:22:28.493Z,43.37
2019-01-25T03:24:38.705Z,44.97
2019-01-25T03:26:48.396Z,53.30
2019-01-25T03:28:58.991Z,43.47
2019-01-25T03:31:10.818Z,52.47
2019-01-25T03:33:19.524Z,47.97
2019-01-25T03:35:32.945Z,45.00
2019-01-25T03:37:40.826Z,46.00
2019-01-25T03:39:49.142Z,47.50
2019-01-25T03:42:00.657Z,47.73
2019-01-25T03:44:09.084Z,39.50
2019-01-25T03:46:18.860Z,53.90
2019-01-25T03:48:30.970Z,49.87
2019-01-25T03:50:45.721Z,45.03
2019-01-25T03:52:58.578Z,51.70
2019-01-25T03:55:07.998Z,50.13
2019-01-25T03:57:15.916Z,45.13
2019-01-25T03:59:26.506Z,41.37
2019-01-25T04:01:36.443Z,41.90
2019-01-25T04:03:44.070Z,42.03
2019-01-25T04:05:55.969Z,32.67
2019-01-25T04:08:07.019Z,40.40
2019-01-25T04:10:14.751Z,41.07
2019-01-25T04:12:26.870Z,37.23
2019-01-25T04:14:36.748Z,48.60
2019-01-25T04:16:47.649Z,46.23
2019-01-25T04:18:56.591Z,39.70
2019-01-25T04:21:03.135Z,43.50
2019-01-25T04:23:13.479Z,40.23
2019-01-25T04:25:28.130Z,48.10
2019-01-25T04:27:38.604Z,50.27
2019-01-25T04:29:46.904Z,39.87
2019-01-25T04:31:55.786Z,42.03
2019-01-25T04:34:03.147Z,43.87
2019-01-25T04:36:10.367Z,53.40
2019-01-25T04:38:18.638Z,43.23
2019-01-25T04:40:30.967Z,43.03
2019-01-25T04:42:41.244Z,44.27
2019-01-25T04:44:48.988Z,43.07
2019-01-25T04:46:55.994Z,40.80
2019-01-25T04:49:02.454Z,46.43
2019-01-25T04:51:13.195Z,43.37
2019-01-25T04:53:22.463Z,42.63
2019-01-25T04:55:34.326Z,45.87
2019-01-25T04:57:45.304Z,33.13
2019-01-25T04:59:53.511Z,44.30
2019-01-25T05:02:00.391Z,46.70
2019-01-25T05:04:11.787Z,43.27
2019-01-25T05:06:22.298Z,40.83
2019-01-25T05:08:34.398Z,39.90
2019-01-25T05:10:45.372Z,38.43
2019-01-25T05:12:58.942Z,36.43
2019-01-25T05:15:06.376Z,35.40
2019-01-25T05:17:16.395Z,45.10
2019-01-25T05:19:27.072Z,42.50
2019-01-25T05:21:35.907Z,39.33
2019-01-25T05:23:44.753Z,43.50
2019-01-25T05:25:57.130Z,42.37
2019-01-25T05:28:20.411Z,44.73
2019-01-25T05:30:34.510Z,42.70
2019-01-25T05:32:43.419Z,44.93
2019-01-25T05:34:52.767Z,41.40
2019-01-25T05:37:05.642Z,46.63
2019-01-25T05:39:14.059Z,40.63
2019-01-25T05:41:28.204Z,46.00
2019-01-25T05:43:35.515Z,37.57
2019-01-25T05:45:48.014Z,39.37
2019-01-25T05:48:01.454Z,39.87
2019-01-25T05:50:09.135Z,46.57
2019-01-25T05:52:21.978Z,39.90
2019-01-25T05:54:27.571Z,41.50
2019-01-25T05:56:41.023Z,44.17
2019-01-25T05:58:49.803Z,45.50
2019-01-25T06:00:58.273Z,40.97
2019-01-25T06:03:16.855Z,51.87
2019-01-25T06:05:25.146Z,43.10
2019-01-25T06:07:32.855Z,47.37
2019-01-25T06:09:39.131Z,48.33
2019-01-25T06:11:43.803Z,45.37
2019-01-25T06:13:50.991Z,43.80
2019-01-25T06:16:01.450Z,44.33
2019-01-25T06:18:09.375Z,40.03
2019-01-25T06:20:18.667Z,40.90
2019-01-25T06:22:30.831Z,40.67
2019-01-25T06:24:42.751Z,36.37
2019-01-25T06:26:56.842Z,48.37
2019-01-25T06:29:04.983Z,43.57
2019-01-25T06:31:20.843Z,39.97
2019-01-25T06:33:31.809Z,48.30
2019-01-25T06:35:47.457Z,41.83
2019-01-25T06:37:56.970Z,41.13
2019-01-25T06:40:04.758Z,39.80
2019-01-25T06:42:12.110Z,48.73
2019-01-25T06:44:17.016Z,43.60
2019-01-25T06:46:27.829Z,45.80
2019-01-25T06:48:35.147Z,43.17
2019-01-25T06:50:43.542Z,45.13
2019-01-25T06:52:53.402Z,44.77
2019-01-25T06:55:01.731Z,46.90
2019-01-25T06:57:21.610Z,42.33
2019-01-25T06:59:36.154Z,36.50
2019-01-25T07:02:03.490Z,45.00
2019-01-25T07:04:12.222Z,39.90
2019-01-25T07:06:22.621Z,42.80
2019-01-25T07:08:34.563Z,41.87
2019-01-25T07:10:42.886Z,41.00
2019-01-25T07:12:53.892Z,37.13
2019-01-25T07:15:02.878Z,39.90
2019-01-25T07:17:14.887Z,41.40
2019-01-25T07:19:26.726Z,39.13
2019-01-25T07:21:36.874Z,47.53
2019-01-25T07:23:46.874Z,45.53
2019-01-25T07:25:52.223Z,45.13
2019-01-25T07:28:00.198Z,43.63
2019-01-25T07:30:09.323Z,43.03
2019-01-25T07:32:18.707Z,39.40
2019-01-25T07:34:27.712Z,43.80
2019-01-25T07:36:36.671Z,48.53
2019-01-25T07:38:44.030Z,43.87
2019-01-25T07:40:53.855Z,45.17
2019-01-25T07:43:04.784Z,46.07
2019-01-25T07:45:14.888Z,44.13
2019-01-25T07:47:25.931Z,48.77
2019-01-25T07:49:37.815Z,39.97
2019-01-25T07:51:47.605Z,39.07
2019-01-25T07:53:58.538Z,40.53
2019-01-25T07:56:09.995Z,40.07
2019-01-25T07:58:18.113Z,37.53
2019-01-25T08:00:26.379Z,41.20
2019-01-25T08:02:32.879Z,38.30
2019-01-25T08:04:41.873Z,34.43
2019-01-25T08:06:55.272Z,41.20
2019-01-25T08:09:06.887Z,34.13
2019-01-25T08:11:15.257Z,40.23
2019-01-25T08:13:20.414Z,42.20
2019-01-25T08:15:29.269Z,37.83
2019-01-25T08:17:36.313Z,35.63
2019-01-25T08:19:42.084Z,37.60
2019-01-25T08:21:53.151Z,44.77
2019-01-25T08:24:00.185Z,43.67
2019-01-25T08:26:07.819Z,37.93
2019-01-25T08:28:15.367Z,39.90
2019-01-25T08:30:22.343Z,35.20
2019-01-25T08:32:31.117Z,37.20
2019-01-25T08:34:41.232Z,39.73
2019-01-25T08:36:50.220Z,33.70
2019-01-25T08:38:59.435Z,39.00
2019-01-25T08:41:12.314Z,34.77
2019-01-25T08:43:21.267Z,36.70
2019-01-25T08:45:28.342Z,35.10
2019-01-25T08:47:37.220Z,35.70
2019-01-25T08:49:57.771Z,28.43
2019-01-25T08:52:03.575Z,39.90
2019-01-25T08:54:14.223Z,37.07
2019-01-25T08:56:26.861Z,37.70
2019-01-25T08:58:36.664Z,37.67
2019-01-25T09:00:43.139Z,42.87
2019-01-25T09:02:51.435Z,35.13
2019-01-25T09:05:08.962Z,38.30
2019-01-25T09:07:17.140Z,39.20
2019-01-25T09:09:57.165Z,39.20
2019-01-25T09:12:09.997Z,29.13
2019-01-25T09:14:20.309Z,40.00
2019-01-25T09:16:30.186Z,35.50
2019-01-25T09:18:37.623Z,36.20
2019-01-25T09:20:43.884Z,31.53
2019-01-25T09:22:51.752Z,33.13
2019-01-25T09:25:00.218Z,36.63
2019-01-25T09:27:12.474Z,30.43
2019-01-25T09:29:20.288Z,32.53
2019-01-25T09:31:28.570Z,34.53
2019-01-25T09:33:39.733Z,33.40
2019-01-25T09:35:47.063Z,33.60
2019-01-25T09:37:55.492Z,28.23
2019-01-25T09:40:04.934Z,33.37
2019-01-25T09:42:12.682Z,32.93
2019-01-25T09:44:22.734Z,34.00
2019-01-25T09:46:38.037Z,31.73
2019-01-25T09:49:05.988Z,31.70
2019-01-25T09:51:19.342Z,25.80
2019-01-25T09:53:29.822Z,29.57
2019-01-25T09:55:53.231Z,33.97
2019-01-25T09:58:02.745Z,33.50
2019-01-25T10:00:38.358Z,35.40
2019-01-25T10:02:51.245Z,30.10
2019-01-25T10:05:05.347Z,31.67
2019-01-25T10:07:17.694Z,35.87
2019-01-25T10:09:33.307Z,29.43
2019-01-25T10:11:55.016Z,31.87
2019-01-25T10:14:11.299Z,31.67
2019-01-25T10:16:45.849Z,37.70
2019-01-25T10:19:03.095Z,30.07
2019-01-25T10:21:20.913Z,34.20
2019-01-25T10:23:29.527Z,29.27
2019-01-25T10:25:47.502Z,30.10
2019-01-25T10:28:18.853Z,30.60
2019-01-25T10:30:37.935Z,29.10
2019-01-25T10:32:49.856Z,30.93
2019-01-25T10:35:33.723Z,30.33
2019-01-25T10:38:01.924Z,32.00
2019-01-25T10:40:14.096Z,31.17
2019-01-25T10:42:21.515Z,32.67
2019-01-25T10:44:31.341Z,28.87
2019-01-25T10:46:40.011Z,29.17
2019-01-25T10:48:45.791Z,21.10
2019-01-25T10:50:52.949Z,26.43
2019-01-25T10:53:01.821Z,27.77
2019-01-25T10:55:14.296Z,29.57
2019-01-25T10:57:19.431Z,25.90
2019-01-25T10:59:28.787Z,27.70
2019-01-25T11:01:35.947Z,22.57
2019-01-25T11:03:53.006Z,29.90
2019-01-25T11:06:01.279Z,28.07
2019-01-25T11:08:10.379Z,27.33
2019-01-25T11:10:17.817Z,30.40
2019-01-25T11:12:26.810Z,29.33
2019-01-25T11:14:38.667Z,29.50
2019-01-25T11:16:48.459Z,33.97
2019-01-25T11:18:59.615Z,31.93
2019-01-25T11:21:07.223Z,38.77
2019-01-25T11:23:17.419Z,35.13
2019-01-25T11:25:30.190Z,33.00
2019-01-25T11:27:39.227Z,37.70
2019-01-25T11:29:45.467Z,31.67
2019-01-25T11:31:52.042Z,31.43
2019-01-25T11:34:00.222Z,39.37
2019-01-25T11:36:10.811Z,38.97
2019-01-25T11:38:17.047Z,33.40
2019-01-25T11:40:29.323Z,36.37
2019-01-25T11:42:40.904Z,40.90
2019-01-25T11:44:52.678Z,31.23
2019-01-25T11:47:01.965Z,32.37
2019-01-25T11:49:10.043Z,38.83
2019-01-25T11:51:19.962Z,31.93
2019-01-25T11:53:26.504Z,33.63
2019-01-25T11:55:36.354Z,34.83
2019-01-25T11:57:45.619Z,37.03
2019-01-25T11:59:54.075Z,36.60
2019-01-25T12:02:03.331Z,41.10
2019-01-25T12:04:12.371Z,33.33
2019-01-25T12:06:21.359Z,31.10
2019-01-25T12:08:30.344Z,33.70
2019-01-25T12:10:42.639Z,33.73
2019-01-25T12:12:51.796Z,35.97
2019-01-25T12:15:00.700Z,39.50
2019-01-25T12:17:08.755Z,34.53
2019-01-25T12:19:14.829Z,38.23
2019-01-25T12:21:22.359Z,36.27
2019-01-25T12:23:33.275Z,36.47
2019-01-25T12:25:41.067Z,40.30
2019-01-25T12:27:49.963Z,37.10
2019-01-25T12:29:58.973Z,32.33
2019-01-25T12:32:07.821Z,31.10
2019-01-25T12:34:14.679Z,35.20
2019-01-25T12:36:20.908Z,34.73
2019-01-25T12:38:25.783Z,38.07
2019-01-25T12:40:31.672Z,34.80
2019-01-25T12:42:39.280Z,32.80
2019-01-25T12:44:48.155Z,35.73
2019-01-25T12:46:57.947Z,36.13
2019-01-25T12:49:06.878Z,31.40
2019-01-25T12:51:25.789Z,34.30
2019-01-25T12:53:36.458Z,30.63
2019-01-25T12:55:46.774Z,35.57
2019-01-25T12:57:56.542Z,40.97
2019-01-25T13:00:06.716Z,36.83
2019-01-25T13:02:16.718Z,35.77
2019-01-25T13:04:26.667Z,38.47
2019-01-25T13:06:34.822Z,36.73
2019-01-25T13:08:43.722Z,37.30
2019-01-25T13:10:55.256Z,39.53
2019-01-25T13:13:04.331Z,32.23
2019-01-25T13:15:12.238Z,31.27
2019-01-25T13:17:19.236Z,38.50
2019-01-25T13:19:24.249Z,33.47
2019-01-25T13:21:31.002Z,33.73
2019-01-25T13:23:42.127Z,32.43
2019-01-25T13:25:51.116Z,32.00
2019-01-25T13:27:58.946Z,34.47
2019-01-25T13:30:06.832Z,37.23
2019-01-25T13:32:14.664Z,29.23
2019-01-25T13:34:24.761Z,35.43
2019-01-25T13:36:35.123Z,25.77
2019-01-25T13:38:45.336Z,39.80
2019-01-25T13:40:53.995Z,39.87
2019-01-25T13:43:01.722Z,30.13
2019-01-25T13:45:09.094Z,35.73
2019-01-25T13:47:19.819Z,35.07
2019-01-25T13:49:31.673Z,40.50
2019-01-25T13:51:42.210Z,37.10
2019-01-25T13:53:52.951Z,35.63
2019-01-25T13:56:01.835Z,35.47
2019-01-25T13:58:08.874Z,45.17
2019-01-25T14:00:23.101Z,34.70
2019-01-25T14:02:31.990Z,34.23
2019-01-25T14:04:39.307Z,32.90
2019-01-25T14:06:48.908Z,32.20
2019-01-25T14:08:59.089Z,35.63
2019-01-25T14:11:07.402Z,40.13
2019-01-25T14:13:15.223Z,24.07
2019-01-25T14:15:21.000Z,34.63
2019-01-25T14:17:27.126Z,32.17
2019-01-25T14:19:32.530Z,37.63
2019-01-25T14:21:42.507Z,30.53
2019-01-25T14:23:50.412Z,33.70
2019-01-25T14:26:01.282Z,27.47
2019-01-25T14:28:10.798Z,22.83
2019-01-25T14:30:38.262Z,30.30
2019-01-25T14:32:45.120Z,34.35
2019-01-25T14:34:53.004Z,40.43
2019-01-25T14:37:03.282Z,34.53
2019-01-25T14:39:12.550Z,32.63
2019-01-25T14:41:18.031Z,32.30
2019-01-25T14:43:25.403Z,37.70
2019-01-25T14:45:35.759Z,37.23
2019-01-25T14:47:43.597Z,17.33
2019-01-25T14:49:53.614Z,31.63
2019-01-25T14:52:04.126Z,27.47
2019-01-25T14:54:12.210Z,31.93
2019-01-25T14:56:19.518Z,34.23
2019-01-25T14:58:29.355Z,33.03
2019-01-25T15:00:37.852Z,38.03
2019-01-25T15:02:50.485Z,33.63
2019-01-25T15:05:00.490Z,33.63
2019-01-25T15:07:09.419Z,38.27
2019-01-25T15:09:20.455Z,35.27
2019-01-25T15:11:30.927Z,34.17
2019-01-25T15:13:41.721Z,32.77
2019-01-25T15:15:47.526Z,35.70
2019-01-25T15:17:53.907Z,37.13
2019-01-25T15:20:01.748Z,41.27
2019-01-25T15:22:08.920Z,36.40
2019-01-25T15:24:17.687Z,31.70
2019-01-25T15:26:24.097Z,42.10
2019-01-25T15:28:31.564Z,42.10
2019-01-25T15:30:41.290Z,37.63
2019-01-25T15:32:51.639Z,39.00
2019-01-25T15:34:57.596Z,32.67
2019-01-25T15:37:06.636Z,40.83
2019-01-25T15:39:14.244Z,39.87
2019-01-25T15:41:24.619Z,44.50
2019-01-25T15:43:36.855Z,42.83
2019-01-25T15:45:46.864Z,41.03
2019-01-25T15:47:59.119Z,33.67
2019-01-25T15:50:10.973Z,41.13
2019-01-25T15:52:18.503Z,37.30
2019-01-25T15:54:29.299Z,42.80
2019-01-25T15:56:43.282Z,42.47
2019-01-25T15:58:51.632Z,43.10
2019-01-25T16:01:00.814Z,44.63
2019-01-25T16:03:09.654Z,44.83
2019-01-25T16:05:20.030Z,45.07
2019-01-25T16:07:26.847Z,37.53
2019-01-25T16:09:38.035Z,38.00
2019-01-25T16:11:45.230Z,43.23
2019-01-25T16:13:51.887Z,44.97
2019-01-25T16:16:00.207Z,40.23
2019-01-25T16:18:08.752Z,44.23
2019-01-25T16:20:16.161Z,43.57
2019-01-25T16:22:21.021Z,46.27
2019-01-25T16:24:26.311Z,36.60
2019-01-25T16:26:37.606Z,42.50
2019-01-25T16:28:49.822Z,38.87
2019-01-25T16:30:59.658Z,34.13
2019-01-25T16:33:09.046Z,34.00
2019-01-25T16:35:17.867Z,39.03
2019-01-25T16:37:28.991Z,36.30
2019-01-25T16:39:34.802Z,43.80
2019-01-25T16:41:45.541Z,37.23
2019-01-25T16:43:53.585Z,35.73
2019-01-25T16:46:05.339Z,31.00
2019-01-25T16:48:13.924Z,33.47
2019-01-25T16:50:23.819Z,43.30
2019-01-25T16:52:29.527Z,39.67
2019-01-25T16:54:36.943Z,33.20
2019-01-25T16:56:44.941Z,44.33
2019-01-25T16:58:53.263Z,45.67
2019-01-25T17:01:01.085Z,46.30
2019-01-25T17:03:10.147Z,39.33
2019-01-25T17:05:20.092Z,51.00
2019-01-25T17:07:28.937Z,43.67
2019-01-25T17:09:38.545Z,44.70
2019-01-25T17:11:48.363Z,30.83
2019-01-25T17:13:56.839Z,42.53
2019-01-25T17:16:08.887Z,44.30
2019-01-25T17:18:17.910Z,40.60
2019-01-25T17:20:27.422Z,43.13
2019-01-25T17:22:34.667Z,41.33
2019-01-25T17:24:40.554Z,45.73
2019-01-25T17:26:53.647Z,44.10
2019-01-25T17:29:02.083Z,44.13
2019-01-25T17:31:11.075Z,45.57
2019-01-25T17:33:21.104Z,41.67
2019-01-25T17:35:31.262Z,46.80
2019-01-25T17:37:37.690Z,44.43
2019-01-25T17:39:45.368Z,48.47
2019-01-25T17:41:53.740Z,45.20
2019-01-25T17:44:02.702Z,42.67
2019-01-25T17:46:10.167Z,34.20
2019-01-25T17:48:21.034Z,42.27
2019-01-25T17:50:37.107Z,48.63
2019-01-25T17:52:45.964Z,39.03
2019-01-25T17:54:57.067Z,38.07
2019-01-25T17:57:08.295Z,45.53
2019-01-25T17:59:18.982Z,45.57
2019-01-25T18:01:30.706Z,40.00
2019-01-25T18:03:37.834Z,47.03
2019-01-25T18:05:47.035Z,39.33
2019-01-25T18:07:55.390Z,41.00
2019-01-25T18:10:01.591Z,39.83
2019-01-25T18:12:09.545Z,47.60
2019-01-25T18:14:18.518Z,44.47
2019-01-25T18:16:26.027Z,43.10
2019-01-25T18:18:34.632Z,44.33
2019-01-25T18:20:43.110Z,42.23
2019-01-25T18:22:53.729Z,40.40
2019-01-25T18:25:04.779Z,42.63
2019-01-25T18:27:12.587Z,43.53
2019-01-25T18:29:35.763Z,42.23
2019-01-25T18:31:42.808Z,38.10
2019-01-25T18:33:51.063Z,37.87
2019-01-25T18:36:01.506Z,39.73
2019-01-25T18:38:10.093Z,35.30
2019-01-25T18:40:17.899Z,38.67
2019-01-25T18:42:29.315Z,44.83
2019-01-25T18:44:39.255Z,37.00
2019-01-25T18:46:50.019Z,35.27
2019-01-25T18:49:00.140Z,35.63
2019-01-25T18:51:09.691Z,41.13
2019-01-25T18:53:17.867Z,36.97
2019-01-25T18:55:28.107Z,37.50
2019-01-25T18:57:37.035Z,40.73
2019-01-25T18:59:44.790Z,36.23
2019-01-25T19:01:54.470Z,41.93
2019-01-25T19:04:01.790Z,42.77
2019-01-25T19:06:09.612Z,34.63
2019-01-25T19:08:19.563Z,43.77
2019-01-25T19:10:31.255Z,41.93
2019-01-25T19:12:40.619Z,43.03
2019-01-25T19:14:48.843Z,39.13
2019-01-25T19:16:53.652Z,34.13
2019-01-25T19:19:03.555Z,36.63
2019-01-25T19:21:12.177Z,42.97
2019-01-25T19:23:20.128Z,30.70
2019-01-25T19:25:28.245Z,40.73
2019-01-25T19:27:36.139Z,39.50
2019-01-25T19:29:43.892Z,40.80
2019-01-25T19:31:50.578Z,40.43
2019-01-25T19:34:00.056Z,27.33
2019-01-25T19:36:06.934Z,31.47
2019-01-25T19:38:14.737Z,39.67
2019-01-25T19:40:24.315Z,32.50
2019-01-25T19:42:33.614Z,39.37
2019-01-25T19:44:43.490Z,35.73
2019-01-25T19:46:52.142Z,35.33
2019-01-25T19:49:00.140Z,38.90
2019-01-25T19:51:09.391Z,34.13
2019-01-25T19:53:18.772Z,34.40
2019-01-25T19:55:27.147Z,37.60
2019-01-25T19:57:34.853Z,36.20
2019-01-25T19:59:43.107Z,37.13
2019-01-25T20:01:54.474Z,35.33
2019-01-25T20:04:02.007Z,38.90
2019-01-25T20:06:07.135Z,39.20
2019-01-25T20:08:15.270Z,33.17
2019-01-25T20:10:24.082Z,36.70
2019-01-25T20:12:36.058Z,38.57
2019-01-25T20:14:43.323Z,37.47
2019-01-25T20:16:53.146Z,45.77
2019-01-25T20:18:59.774Z,35.23
2019-01-25T20:21:09.426Z,42.20
2019-01-25T20:23:18.066Z,41.00
2019-01-25T20:25:27.691Z,37.77
2019-01-25T20:27:38.754Z,41.60
2019-01-25T20:29:48.150Z,43.50
2019-01-25T20:31:59.679Z,34.93
2019-01-25T20:34:11.440Z,44.97
2019-01-25T20:36:21.520Z,39.30
2019-01-25T20:38:30.607Z,38.43
2019-01-25T20:40:39.455Z,41.60
2019-01-25T20:42:47.898Z,47.40
2019-01-25T20:44:57.770Z,39.33
2019-01-25T20:47:10.779Z,40.13
2019-01-25T20:49:21.858Z,38.43
2019-01-25T20:51:30.006Z,43.97
2019-01-25T20:53:40.235Z,36.83
2019-01-25T20:55:48.047Z,35.20
2019-01-25T20:57:59.403Z,34.03
2019-01-25T21:00:12.619Z,34.43
2019-01-25T21:02:19.302Z,33.27
2019-01-25T21:04:27.360Z,35.13
2019-01-25T21:06:36.652Z,34.17
2019-01-25T21:08:49.548Z,36.00
2019-01-25T21:10:59.147Z,36.83
2019-01-25T21:13:09.963Z,32.10
2019-01-25T21:15:21.379Z,31.33
2019-01-25T21:17:30.488Z,34.13
2019-01-25T21:19:35.726Z,36.03
2019-01-25T21:21:44.187Z,39.17
2019-01-25T21:23:53.739Z,37.83
2019-01-25T21:26:03.077Z,38.87
2019-01-25T21:28:08.586Z,36.67
2019-01-25T21:30:24.190Z,35.27
2019-01-25T21:32:32.365Z,34.50
2019-01-25T21:34:41.147Z,39.30
2019-01-25T21:36:51.339Z,33.03
2019-01-25T21:39:01.322Z,38.63
2019-01-25T21:41:09.342Z,32.47
2019-01-25T21:43:17.084Z,33.13
2019-01-25T21:45:30.747Z,37.07
2019-01-25T21:47:40.852Z,30.53
2019-01-25T21:49:49.770Z,35.17
2019-01-25T21:51:58.315Z,32.03
2019-01-25T21:54:08.509Z,29.03
2019-01-25T21:56:18.506Z,27.30
2019-01-25T21:58:26.490Z,26.13
2019-01-25T22:00:36.695Z,27.53
2019-01-25T22:02:44.475Z,27.73
2019-01-25T22:04:56.294Z,23.27
2019-01-25T22:07:04.799Z,29.57
2019-01-25T22:09:11.467Z,29.90
2019-01-25T22:11:17.985Z,29.27
2019-01-25T22:13:26.768Z,24.83
2019-01-25T22:15:34.702Z,26.80
2019-01-25T22:17:42.222Z,33.17
2019-01-25T22:19:55.078Z,30.80
2019-01-25T22:22:03.414Z,33.73
2019-01-25T22:24:12.716Z,29.40
2019-01-25T22:26:21.316Z,30.00
2019-01-25T22:28:32.142Z,33.27
2019-01-25T22:30:41.242Z,28.83
2019-01-25T22:32:55.099Z,31.87
2019-01-25T22:35:02.654Z,26.47
2019-01-25T22:37:12.619Z,29.37
2019-01-25T22:39:24.278Z,27.37
2019-01-25T22:41:33.039Z,29.33
2019-01-25T22:43:44.136Z,26.50
2019-01-25T22:45:58.836Z,29.40
2019-01-25T22:48:04.376Z,32.93
2019-01-25T22:50:19.742Z,28.73
2019-01-25T22:52:29.578Z,31.73
2019-01-25T22:54:43.459Z,30.70
2019-01-25T22:56:53.515Z,33.03
2019-01-25T22:59:01.467Z,31.10
2019-01-25T23:01:38.006Z,26.93
2019-01-25T23:04:44.214Z,28.90
2019-01-25T23:06:56.968Z,29.07
2019-01-25T23:09:09.868Z,29.63
2019-01-25T23:11:17.548Z,26.57
2019-01-25T23:13:29.280Z,24.87
2019-01-25T23:15:37.674Z,29.57
2019-01-25T23:17:47.714Z,28.00
2019-01-25T23:19:57.066Z,27.17
2019-01-25T23:22:05.631Z,27.90
2019-01-25T23:24:17.482Z,31.67
2019-01-25T23:26:26.462Z,28.10
2019-01-25T23:28:35.482Z,29.10
2019-01-25T23:30:45.299Z,32.97
2019-01-25T23:32:57.771Z,25.87
2019-01-25T23:35:05.718Z,29.47
2019-01-25T23:37:14.553Z,30.17
2019-01-25T23:39:24.142Z,24.67
2019-01-25T23:41:31.031Z,28.93
2019-01-25T23:43:39.338Z,28.30
2019-01-25T23:45:48.799Z,27.77
2019-01-25T23:47:59.778Z,29.70
2019-01-25T23:50:10.443Z,28.47
2019-01-25T23:52:21.217Z,16.60
2019-01-25T23:54:30.503Z,26.83
2019-01-25T23:56:38.770Z,26.53
2019-01-25T23:58:51.735Z,24.00
